EmailTwitter


Observations de surface / France / LFBO (07630)

Régions: Québec | Canada | États-Unis | Europe | France | UK | Ailleurs
Station
Affichage
Infos & localisation pour LFBO (07630) | Aide pour décoder les METARs

Observations prises le 2019-12-16 à 01H30 UTC à TOULOUSE/BLAGNAC, FR (LFBO)

Etat du ciel: quelques nuages.

Température: 9.0 Celsius

Point de rosée: 8.0 Celsius

Humidité relative: 93%

Vents: Nord-est à 6 km/h ou 3 noeuds.

Pression au niveau moyen de la mer: 100.70 kilopascals.

Visibilité horizontale: 6.21 milles terrestres ou 9.94 kilomètres.

Observation METAR:

LFBO 160130Z AUTO 04003KT 360V100 9999 FEW017 09/08 Q1007 TEMPO BKN013=